Time;durP1;ratioP1;P1;durP2;ratioP2;P2;SDS_P1;SDS_P2;PMS_P1;PMS_P2;Temp;Humidity;BMP_temperature;BMP_pressure;BME280_temperature;BME280_humidity;BME280_pressure;Samples;Min_cycle;Max_cycle;Signal;HPM_P1;HPM_P2
2023/02/06 00:00:14;;;;;;;;;;;21.40;60.40;;;;;;1534843;75;653;-66
2023/02/06 00:02:16;;;;;;;;;;;21.40;60.50;;;;;;1549776;76;748;-65
2023/02/06 00:04:18;;;;;;;;;;;21.30;60.50;;;;;;1535015;76;790;-65
2023/02/06 00:06:20;;;;;;;;;;;21.40;60.50;;;;;;1546877;76;1142;-66
2023/02/06 00:08:22;;;;;;;;;;;21.40;60.40;;;;;;1530478;76;807;-67
2023/02/06 00:10:24;;;;;;;;;;;21.30;60.50;;;;;;1542940;76;1934;-64
2023/02/06 00:12:26;;;;;;;;;;;21.40;60.40;;;;;;1540449;76;817;-65
2023/02/06 00:14:28;;;;;;;;;;;21.60;60.20;;;;;;1533603;76;780;-64
2023/02/06 00:16:30;;;;;;;;;;;21.60;60.10;;;;;;1536104;76;1118;-70
2023/02/06 00:18:32;;;;;;;;;;;21.60;60.20;;;;;;1535495;76;1407;-65
2023/02/06 00:20:34;;;;;;;;;;;21.60;60.10;;;;;;1539159;76;1071;-66
2023/02/06 00:22:36;;;;;;;;;;;21.60;60.10;;;;;;1538605;76;716;-65
2023/02/06 00:24:39;;;;;;;;;;;21.60;60.00;;;;;;1540275;76;834;-69
2023/02/06 00:26:41;;;;;;;;;;;21.60;59.90;;;;;;1533310;76;1091;-64
2023/02/06 00:28:43;;;;;;;;;;;21.50;60.10;;;;;;1546306;76;728;-65
2023/02/06 00:30:47;;;;;;;;;;;21.60;60.10;;;;;;1544147;76;1935;-65
2023/02/06 00:32:48;;;;;;;;;;;21.60;60.00;;;;;;1548089;76;716;-65
2023/02/06 00:34:50;;;;;;;;;;;21.60;59.80;;;;;;1537663;76;1148;-67
2023/02/06 00:36:52;;;;;;;;;;;21.50;59.80;;;;;;1542372;76;782;-77
2023/02/06 00:38:54;;;;;;;;;;;21.50;60.10;;;;;;1535533;76;725;-65
2023/02/06 00:40:56;;;;;;;;;;;21.50;60.30;;;;;;1548772;76;794;-66
2023/02/06 00:42:58;;;;;;;;;;;21.50;60.20;;;;;;1541082;76;745;-66
2023/02/06 00:45:00;;;;;;;;;;;21.60;60.00;;;;;;1527825;76;1152;-66
2023/02/06 00:47:01;;;;;;;;;;;21.60;59.70;;;;;;1535918;76;743;-66
2023/02/06 00:49:03;;;;;;;;;;;21.70;59.70;;;;;;1541591;76;799;-67
2023/02/06 00:51:05;;;;;;;;;;;21.70;59.60;;;;;;1536523;76;1942;-73
2023/02/06 00:53:07;;;;;;;;;;;21.70;59.50;;;;;;1534885;76;746;-66
2023/02/06 00:55:28;;;;;;;;;;;21.70;59.50;;;;;;1544489;76;1205;-70
2023/02/06 00:57:30;;;;;;;;;;;21.70;59.50;;;;;;1540454;75;682;-66
2023/02/06 00:59:32;;;;;;;;;;;21.70;59.40;;;;;;1543219;75;740;-69
2023/02/06 01:01:34;;;;;;;;;;;21.70;59.40;;;;;;1539496;75;776;-67
2023/02/06 01:03:36;;;;;;;;;;;21.80;59.40;;;;;;1539058;75;800;-66
2023/02/06 01:05:38;;;;;;;;;;;21.70;59.30;;;;;;1555065;75;1207;-65
2023/02/06 01:07:39;;;;;;;;;;;21.80;59.30;;;;;;1523458;77;708;-67
2023/02/06 01:09:41;;;;;;;;;;;21.80;59.30;;;;;;1528517;76;696;-66
2023/02/06 01:11:43;;;;;;;;;;;21.70;59.30;;;;;;1525708;76;1944;-67
2023/02/06 01:13:45;;;;;;;;;;;21.80;59.20;;;;;;1527506;77;1559;-68
2023/02/06 01:15:47;;;;;;;;;;;21.80;59.20;;;;;;1528126;77;1130;-66
2023/02/06 01:17:49;;;;;;;;;;;21.80;59.20;;;;;;1528189;77;768;-66
2023/02/06 01:19:51;;;;;;;;;;;21.70;59.20;;;;;;1523950;76;808;-64
2023/02/06 01:21:53;;;;;;;;;;;21.80;59.20;;;;;;1526688;77;734;-66
2023/02/06 01:23:55;;;;;;;;;;;21.80;59.20;;;;;;1522664;76;702;-66
2023/02/06 01:25:56;;;;;;;;;;;21.70;59.20;;;;;;1530730;76;1134;-67
2023/02/06 01:27:58;;;;;;;;;;;21.70;59.30;;;;;;1530093;76;808;-67
2023/02/06 01:30:00;;;;;;;;;;;21.70;59.30;;;;;;1529839;76;719;-67
2023/02/06 01:32:02;;;;;;;;;;;21.80;59.30;;;;;;1532704;76;1975;-67
2023/02/06 01:34:06;;;;;;;;;;;21.70;59.40;;;;;;1529095;77;727;-68
2023/02/06 01:36:08;;;;;;;;;;;21.70;59.40;;;;;;1536540;76;1123;-66
2023/02/06 01:38:09;;;;;;;;;;;21.70;59.50;;;;;;1524637;77;731;-68
2023/02/06 01:40:12;;;;;;;;;;;21.70;59.50;;;;;;1534269;77;781;-68
2023/02/06 01:42:14;;;;;;;;;;;21.70;59.70;;;;;;1534989;76;795;-67
2023/02/06 01:44:25;;;;;;;;;;;21.70;59.60;;;;;;1527675;77;806;-67
2023/02/06 01:46:23;;;;;;;;;;;21.70;59.50;;;;;;1517875;76;1555;-66
2023/02/06 01:48:32;;;;;;;;;;;21.70;59.60;;;;;;1534766;77;746;-66
2023/02/06 01:50:36;;;;;;;;;;;21.70;59.60;;;;;;1515249;76;736;-67
2023/02/06 01:52:38;;;;;;;;;;;21.70;59.50;;;;;;1528973;76;1934;-66
2023/02/06 01:54:40;;;;;;;;;;;21.70;59.50;;;;;;1534820;77;739;-67
2023/02/06 01:56:44;;;;;;;;;;;21.70;59.70;;;;;;1519608;76;1163;-67
2023/02/06 01:58:46;;;;;;;;;;;21.60;59.60;;;;;;1529117;77;711;-66
2023/02/06 02:00:48;;;;;;;;;;;21.60;59.60;;;;;;1532334;76;762;-67
2023/02/06 02:02:50;;;;;;;;;;;21.70;59.60;;;;;;1521925;77;756;-67
2023/02/06 02:04:52;;;;;;;;;;;21.60;59.60;;;;;;1525620;77;872;-68
2023/02/06 02:07:10;;;;;;;;;;;21.60;59.60;;;;;;1530922;76;1097;-68
2023/02/06 02:09:12;;;;;;;;;;;21.60;59.50;;;;;;1526494;76;1570;-67
2023/02/06 02:11:15;;;;;;;;;;;21.70;59.50;;;;;;1527669;77;1941;-69
2023/02/06 02:13:17;;;;;;;;;;;21.60;59.50;;;;;;1529278;76;1103;-67
2023/02/06 02:15:19;;;;;;;;;;;21.50;59.60;;;;;;1523466;77;1145;-67
2023/02/06 02:17:23;;;;;;;;;;;21.60;59.40;;;;;;1526253;77;777;-67
2023/02/06 02:19:26;;;;;;;;;;;21.60;59.50;;;;;;1524559;76;1909;-69
2023/02/06 02:21:45;;;;;;;;;;;21.50;59.60;;;;;;1522962;76;2045;-67
2023/02/06 02:23:51;;;;;;;;;;;21.60;59.50;;;;;;1534028;77;1963;-68
2023/02/06 02:26:01;;;;;;;;;;;21.60;59.50;;;;;;1532561;76;1752;-68
2023/02/06 02:28:21;;;;;;;;;;;21.50;59.60;;;;;;1528646;76;1080;-67
2023/02/06 02:30:39;;;;;;;;;;;21.60;59.60;;;;;;1537155;77;790;-64
2023/02/06 02:32:55;;;;;;;;;;;21.50;59.60;;;;;;1529304;76;1941;-70
2023/02/06 02:35:15;;;;;;;;;;;21.40;59.50;;;;;;1524115;76;794;-69
2023/02/06 02:37:28;;;;;;;;;;;21.50;59.60;;;;;;1514393;77;737;-66
2023/02/06 02:39:31;;;;;;;;;;;21.60;59.60;;;;;;1537684;77;784;-67
2023/02/06 02:41:35;;;;;;;;;;;21.50;59.80;;;;;;1534440;76;722;-67
2023/02/06 02:43:41;;;;;;;;;;;21.60;59.90;;;;;;1525782;76;685;-68
2023/02/06 02:45:45;;;;;;;;;;;21.50;60.00;;;;;;1535807;76;1147;-67
2023/02/06 02:47:57;;;;;;;;;;;21.50;60.10;;;;;;1526373;76;1062;-63
2023/02/06 02:49:59;;;;;;;;;;;21.40;60.00;;;;;;1524128;76;721;-68
2023/02/06 02:52:01;;;;;;;;;;;21.40;59.90;;;;;;1535320;76;1928;-69
2023/02/06 02:54:03;;;;;;;;;;;21.40;60.00;;;;;;1528374;76;800;-66
2023/02/06 02:56:10;;;;;;;;;;;21.40;60.00;;;;;;1525203;76;1137;-66
2023/02/06 02:58:13;;;;;;;;;;;21.50;60.00;;;;;;1518480;76;1122;-66
2023/02/06 03:00:16;;;;;;;;;;;21.50;60.00;;;;;;1514749;77;876;-67
2023/02/06 03:02:31;;;;;;;;;;;21.50;59.90;;;;;;1525178;76;789;-67
2023/02/06 03:04:44;;;;;;;;;;;21.50;59.90;;;;;;1532590;77;687;-66
2023/02/06 03:06:53;;;;;;;;;;;21.50;59.90;;;;;;1532710;76;1633;-67
2023/02/06 03:08:59;;;;;;;;;;;21.50;60.10;;;;;;1521562;77;2049;-67
2023/02/06 03:11:02;;;;;;;;;;;21.60;59.80;;;;;;1538756;77;742;-66
2023/02/06 03:13:06;;;;;;;;;;;21.60;59.60;;;;;;1529463;77;1906;-67
2023/02/06 03:15:22;;;;;;;;;;;21.70;59.50;;;;;;1528521;76;1271;-66
2023/02/06 03:17:25;;;;;;;;;;;21.80;59.30;;;;;;1525089;77;2089;-68
2023/02/06 03:19:29;;;;;;;;;;;21.70;59.20;;;;;;1529627;76;1569;-66
2023/02/06 03:21:31;;;;;;;;;;;21.80;59.30;;;;;;1521238;77;899;-66
2023/02/06 03:23:33;;;;;;;;;;;21.80;59.30;;;;;;1533847;77;732;-67
2023/02/06 03:25:37;;;;;;;;;;;21.80;59.30;;;;;;1526966;76;1126;-68
2023/02/06 03:27:39;;;;;;;;;;;21.70;59.30;;;;;;1536899;76;1792;-66
2023/02/06 03:29:41;;;;;;;;;;;21.70;59.30;;;;;;1527774;77;720;-67
2023/02/06 03:31:50;;;;;;;;;;;21.70;59.30;;;;;;1534887;76;1935;-69
2023/02/06 03:33:54;;;;;;;;;;;21.70;59.30;;;;;;1534632;77;1825;-68
2023/02/06 03:35:56;;;;;;;;;;;21.80;59.20;;;;;;1524934;76;1216;-67
2023/02/06 03:37:58;;;;;;;;;;;21.80;59.20;;;;;;1532304;76;702;-67
2023/02/06 03:40:00;;;;;;;;;;;21.80;59.30;;;;;;1528069;76;767;-65
2023/02/06 03:42:02;;;;;;;;;;;21.80;59.30;;;;;;1532807;76;809;-68
2023/02/06 03:44:05;;;;;;;;;;;21.70;59.40;;;;;;1530347;77;734;-66
2023/02/06 03:46:07;;;;;;;;;;;21.70;59.50;;;;;;1534712;77;1131;-67
2023/02/06 03:48:11;;;;;;;;;;;21.70;59.40;;;;;;1533305;77;810;-66
2023/02/06 03:50:13;;;;;;;;;;;21.70;59.40;;;;;;1531983;77;758;-66
2023/02/06 03:52:16;;;;;;;;;;;21.70;59.40;;;;;;1536728;77;1923;-66
2023/02/06 03:54:19;;;;;;;;;;;21.70;59.40;;;;;;1531820;77;664;-66
2023/02/06 03:56:31;;;;;;;;;;;21.70;59.50;;;;;;1533877;77;1115;-65
2023/02/06 03:58:33;;;;;;;;;;;21.70;59.50;;;;;;1527300;77;1807;-66
2023/02/06 04:00:35;;;;;;;;;;;21.80;59.30;;;;;;1524532;77;728;-68
2023/02/06 04:02:37;;;;;;;;;;;21.80;59.30;;;;;;1522122;77;1554;-69
2023/02/06 04:04:39;;;;;;;;;;;21.70;59.30;;;;;;1534165;77;803;-66
2023/02/06 04:06:41;;;;;;;;;;;21.70;59.30;;;;;;1535666;77;1152;-66
2023/02/06 04:08:43;;;;;;;;;;;21.80;59.20;;;;;;1523394;77;730;-66
2023/02/06 04:10:45;;;;;;;;;;;21.70;59.30;;;;;;1530672;76;837;-68
2023/02/06 04:12:47;;;;;;;;;;;21.70;59.40;;;;;;1532533;77;2058;-65
2023/02/06 04:14:49;;;;;;;;;;;21.80;59.30;;;;;;1532786;76;751;-67
2023/02/06 04:16:51;;;;;;;;;;;21.80;59.20;;;;;;1538063;76;1174;-67
2023/02/06 04:18:52;;;;;;;;;;;21.80;59.20;;;;;;1525620;76;802;-68
2023/02/06 04:20:54;;;;;;;;;;;21.80;59.40;;;;;;1522548;77;752;-67
2023/02/06 04:22:57;;;;;;;;;;;21.80;59.20;;;;;;1536846;76;767;-67
2023/02/06 04:24:58;;;;;;;;;;;21.80;59.30;;;;;;1530996;77;822;-65
2023/02/06 04:27:00;;;;;;;;;;;21.80;59.20;;;;;;1526971;77;1110;-66
2023/02/06 04:29:02;;;;;;;;;;;21.80;59.30;;;;;;1528676;77;828;-66
2023/02/06 04:31:04;;;;;;;;;;;21.80;59.10;;;;;;1532078;76;795;-67
2023/02/06 04:33:06;;;;;;;;;;;21.80;59.00;;;;;;1532206;77;1945;-67
2023/02/06 04:35:08;;;;;;;;;;;21.80;59.10;;;;;;1537584;76;1122;-71
2023/02/06 04:37:14;;;;;;;;;;;21.70;58.90;;;;;;1516423;77;787;-69
2023/02/06 04:39:13;;;;;;;;;;;21.70;59.30;;;;;;1523101;77;1498;-67
2023/02/06 04:41:15;;;;;;;;;;;21.70;59.40;;;;;;1515897;77;713;-66
2023/02/06 04:43:17;;;;;;;;;;;21.80;59.30;;;;;;1535651;77;725;-67
2023/02/06 04:45:19;;;;;;;;;;;21.70;59.10;;;;;;1527868;77;1137;-66
2023/02/06 04:47:21;;;;;;;;;;;21.70;59.20;;;;;;1528706;77;713;-67
2023/02/06 04:49:23;;;;;;;;;;;21.70;59.20;;;;;;1524288;76;802;-68
2023/02/06 04:51:24;;;;;;;;;;;21.70;59.10;;;;;;1516836;76;799;-66
2023/02/06 04:53:26;;;;;;;;;;;21.70;59.10;;;;;;1537880;77;1945;-66
2023/02/06 04:55:28;;;;;;;;;;;21.70;59.10;;;;;;1524141;77;1126;-67
2023/02/06 04:57:30;;;;;;;;;;;21.70;59.10;;;;;;1533042;76;710;-65
2023/02/06 04:59:32;;;;;;;;;;;21.70;59.10;;;;;;1532777;76;1492;-66
2023/02/06 05:01:34;;;;;;;;;;;21.60;59.10;;;;;;1524237;77;726;-67
2023/02/06 05:03:36;;;;;;;;;;;21.60;59.10;;;;;;1516954;77;811;-67
2023/02/06 05:05:37;;;;;;;;;;;21.60;59.20;;;;;;1520399;77;1172;-67
2023/02/06 05:07:39;;;;;;;;;;;21.60;59.20;;;;;;1533579;77;799;-67
2023/02/06 05:09:41;;;;;;;;;;;21.60;59.10;;;;;;1522878;77;758;-66
2023/02/06 05:11:43;;;;;;;;;;;21.60;59.10;;;;;;1536172;76;766;-67
2023/02/06 05:13:45;;;;;;;;;;;21.70;59.30;;;;;;1523285;77;1955;-67
2023/02/06 05:15:47;;;;;;;;;;;21.60;59.20;;;;;;1538263;76;1162;-69
2023/02/06 05:17:49;;;;;;;;;;;21.60;59.20;;;;;;1533081;77;757;-67
2023/02/06 05:19:51;;;;;;;;;;;21.60;59.20;;;;;;1533663;77;738;-67
2023/02/06 05:21:52;;;;;;;;;;;21.70;59.10;;;;;;1536533;77;852;-68
2023/02/06 05:23:54;;;;;;;;;;;21.70;59.00;;;;;;1525113;77;717;-66
2023/02/06 05:25:56;;;;;;;;;;;21.70;59.00;;;;;;1522506;77;1202;-67
2023/02/06 05:27:58;;;;;;;;;;;21.80;58.80;;;;;;1524081;77;680;-68
2023/02/06 05:30:00;;;;;;;;;;;21.80;58.70;;;;;;1519498;77;738;-69
2023/02/06 05:32:02;;;;;;;;;;;21.90;58.70;;;;;;1525032;76;786;-67
2023/02/06 05:34:04;;;;;;;;;;;21.90;58.30;;;;;;1535062;77;1932;-66
2023/02/06 05:36:06;;;;;;;;;;;21.90;58.20;;;;;;1534089;77;1122;-68
2023/02/06 05:38:08;;;;;;;;;;;21.80;58.10;;;;;;1519632;77;779;-67
2023/02/06 05:40:10;;;;;;;;;;;21.80;58.70;;;;;;1528006;77;706;-67
2023/02/06 05:42:12;;;;;;;;;;;21.80;58.70;;;;;;1534522;77;755;-66
2023/02/06 05:44:14;;;;;;;;;;;21.80;58.60;;;;;;1534381;76;822;-66
2023/02/06 05:46:16;;;;;;;;;;;21.80;58.80;;;;;;1533177;76;1153;-67
2023/02/06 05:48:18;;;;;;;;;;;21.80;58.70;;;;;;1529029;76;841;-68
2023/02/06 05:50:20;;;;;;;;;;;21.70;59.10;;;;;;1527004;76;745;-66
2023/02/06 05:52:22;;;;;;;;;;;21.70;59.10;;;;;;1530936;76;748;-69
2023/02/06 05:54:24;;;;;;;;;;;21.70;59.40;;;;;;1531845;76;1546;-70
2023/02/06 05:56:26;;;;;;;;;;;21.70;59.40;;;;;;1527547;76;1143;-66
2023/02/06 05:58:27;;;;;;;;;;;21.80;59.50;;;;;;1533108;76;727;-66
2023/02/06 06:00:29;;;;;;;;;;;21.80;59.30;;;;;;1533167;76;709;-68
2023/02/06 06:02:31;;;;;;;;;;;21.80;59.10;;;;;;1531127;76;852;-67
2023/02/06 06:04:33;;;;;;;;;;;21.80;59.20;;;;;;1532865;76;856;-67
2023/02/06 06:06:35;;;;;;;;;;;21.90;59.20;;;;;;1532929;76;1162;-67
2023/02/06 06:08:37;;;;;;;;;;;21.80;59.10;;;;;;1528303;76;781;-66
2023/02/06 06:10:39;;;;;;;;;;;21.90;59.00;;;;;;1535427;76;828;-66
2023/02/06 06:12:41;;;;;;;;;;;21.90;58.90;;;;;;1528175;76;1932;-66
2023/02/06 06:14:42;;;;;;;;;;;21.90;59.00;;;;;;1535003;76;756;-66
2023/02/06 06:16:44;;;;;;;;;;;21.80;59.10;;;;;;1528015;76;1165;-66
2023/02/06 06:18:46;;;;;;;;;;;21.90;59.10;;;;;;1535159;76;758;-69
2023/02/06 06:20:48;;;;;;;;;;;21.90;58.80;;;;;;1533325;76;826;-67
2023/02/06 06:22:50;;;;;;;;;;;21.90;58.60;;;;;;1534195;76;738;-65
2023/02/06 06:24:52;;;;;;;;;;;22.00;58.70;;;;;;1532893;76;766;-66
2023/02/06 06:26:54;;;;;;;;;;;22.00;58.20;;;;;;1530291;76;1115;-65
2023/02/06 06:28:56;;;;;;;;;;;22.00;58.10;;;;;;1532329;76;770;-68
2023/02/06 06:31:05;;;;;;;;;;;22.10;58.10;;;;;;1530106;76;811;-66
2023/02/06 06:33:06;;;;;;;;;;;22.00;57.70;;;;;;1533513;77;1937;-65
2023/02/06 06:35:08;;;;;;;;;;;21.90;58.00;;;;;;1526625;76;1131;-65
2023/02/06 06:37:10;;;;;;;;;;;21.90;58.00;;;;;;1535807;76;941;-65
2023/02/06 06:39:12;;;;;;;;;;;21.90;58.10;;;;;;1536158;76;890;-66
2023/02/06 06:41:14;;;;;;;;;;;21.80;58.50;;;;;;1524822;76;701;-66
2023/02/06 06:43:16;;;;;;;;;;;21.80;58.60;;;;;;1522951;76;823;-67
2023/02/06 06:45:18;;;;;;;;;;;21.80;58.60;;;;;;1523211;77;1102;-67
2023/02/06 06:47:19;;;;;;;;;;;21.80;58.70;;;;;;1539592;77;723;-65
2023/02/06 06:49:21;;;;;;;;;;;21.90;58.20;;;;;;1534343;77;770;-64
2023/02/06 06:51:25;;;;;;;;;;;21.90;58.10;;;;;;1530340;76;1576;-65
2023/02/06 06:53:27;;;;;;;;;;;22.00;57.80;;;;;;1538440;76;1916;-66
2023/02/06 06:57:32;;;;;;;;;;;22.00;57.40;;;;;;1568164;74;628;-66
2023/02/06 06:59:34;;;;;;;;;;;22.00;57.10;;;;;;1552324;75;720;-66
2023/02/06 07:01:36;;;;;;;;;;;22.00;57.00;;;;;;1554872;75;675;-66
2023/02/06 07:03:38;;;;;;;;;;;22.00;56.80;;;;;;1549234;75;718;-66
2023/02/06 07:05:40;;;;;;;;;;;22.10;56.80;;;;;;1569775;74;1211;-66
2023/02/06 07:07:42;;;;;;;;;;;22.00;56.60;;;;;;1569129;74;674;-69
2023/02/06 07:09:44;;;;;;;;;;;22.10;56.60;;;;;;1562689;74;710;-69
2023/02/06 07:11:46;;;;;;;;;;;22.10;56.70;;;;;;1559006;74;743;-69
2023/02/06 07:13:47;;;;;;;;;;;22.00;56.30;;;;;;1568286;74;1932;-70
2023/02/06 07:15:49;;;;;;;;;;;22.00;56.40;;;;;;1563868;74;1195;-70
2023/02/06 07:17:51;;;;;;;;;;;22.00;56.30;;;;;;1556649;74;727;-70
2023/02/06 07:19:53;;;;;;;;;;;22.00;56.20;;;;;;1562238;74;742;-73
2023/02/06 07:21:55;;;;;;;;;;;22.00;56.20;;;;;;1558400;74;659;-71
2023/02/06 07:23:57;;;;;;;;;;;22.00;56.10;;;;;;1564152;74;722;-73
2023/02/06 07:26:01;;;;;;;;;;;22.00;56.20;;;;;;1566341;74;1126;-69
2023/02/06 07:28:02;;;;;;;;;;;22.10;56.10;;;;;;1558643;74;877;-69
2023/02/06 07:30:04;;;;;;;;;;;22.00;55.90;;;;;;1559051;74;712;-70
2023/02/06 07:32:06;;;;;;;;;;;22.10;56.00;;;;;;1567624;74;732;-70
2023/02/06 07:34:08;;;;;;;;;;;22.10;56.00;;;;;;1569052;74;1912;-69
2023/02/06 07:36:11;;;;;;;;;;;22.10;55.80;;;;;;1568601;74;1126;-71
2023/02/06 07:38:12;;;;;;;;;;;22.10;55.80;;;;;;1554939;74;739;-70
2023/02/06 07:40:14;;;;;;;;;;;22.10;55.70;;;;;;1564402;74;756;-71
2023/02/06 07:42:16;;;;;;;;;;;22.00;55.70;;;;;;1556716;74;749;-72
2023/02/06 07:44:18;;;;;;;;;;;22.00;55.60;;;;;;1560913;74;714;-70
2023/02/06 07:46:20;;;;;;;;;;;22.00;55.70;;;;;;1555000;74;1140;-70
2023/02/06 07:48:22;;;;;;;;;;;22.00;55.70;;;;;;1565582;74;1470;-69
2023/02/06 07:50:24;;;;;;;;;;;22.00;55.60;;;;;;1565700;74;731;-73
2023/02/06 07:52:25;;;;;;;;;;;22.00;55.60;;;;;;1565130;74;772;-71
2023/02/06 07:54:27;;;;;;;;;;;22.00;55.70;;;;;;1568780;74;1942;-74
2023/02/06 07:56:29;;;;;;;;;;;22.00;55.60;;;;;;1561241;74;1231;-73
2023/02/06 07:58:31;;;;;;;;;;;22.00;55.60;;;;;;1566468;74;594;-71
2023/02/06 08:00:33;;;;;;;;;;;22.00;55.60;;;;;;1565251;74;716;-69
2023/02/06 08:02:35;;;;;;;;;;;22.00;55.50;;;;;;1566974;74;706;-70
2023/02/06 08:04:37;;;;;;;;;;;22.00;55.40;;;;;;1560385;74;762;-72
2023/02/06 08:06:42;;;;;;;;;;;22.00;55.50;;;;;;1558148;74;1151;-70
2023/02/06 08:08:44;;;;;;;;;;;22.00;55.50;;;;;;1563054;74;751;-69
2023/02/06 08:10:46;;;;;;;;;;;22.00;55.50;;;;;;1565039;74;779;-69
2023/02/06 08:12:48;;;;;;;;;;;22.00;55.60;;;;;;1556528;74;755;-68
2023/02/06 08:14:50;;;;;;;;;;;22.00;55.60;;;;;;1567823;74;1938;-68
2023/02/06 08:16:52;;;;;;;;;;;21.90;55.60;;;;;;1562189;74;1170;-69
2023/02/06 08:18:54;;;;;;;;;;;21.80;55.60;;;;;;1567617;74;691;-68
2023/02/06 08:20:57;;;;;;;;;;;21.90;55.80;;;;;;1557258;74;654;-72
2023/02/06 08:22:59;;;;;;;;;;;21.90;55.80;;;;;;1552884;74;990;-69
2023/02/06 08:25:01;;;;;;;;;;;21.80;55.60;;;;;;1564948;74;697;-68
2023/02/06 08:27:03;;;;;;;;;;;21.90;55.70;;;;;;1555489;74;1151;-70
2023/02/06 08:29:05;;;;;;;;;;;21.80;55.70;;;;;;1566603;74;768;-71
2023/02/06 08:31:22;;;;;;;;;;;21.80;55.70;;;;;;1569241;74;697;-69
2023/02/06 08:33:24;;;;;;;;;;;21.80;55.80;;;;;;1565338;74;1926;-71
2023/02/06 08:35:26;;;;;;;;;;;21.80;55.70;;;;;;1569647;74;832;-70
2023/02/06 08:37:28;;;;;;;;;;;21.80;55.90;;;;;;1568861;74;697;-71
2023/02/06 08:39:30;;;;;;;;;;;21.70;55.90;;;;;;1571595;74;685;-70
2023/02/06 08:41:35;;;;;;;;;;;21.80;56.10;;;;;;1568183;74;732;-71
2023/02/06 08:43:37;;;;;;;;;;;21.80;56.00;;;;;;1556165;74;1501;-70
2023/02/06 08:45:39;;;;;;;;;;;21.70;56.00;;;;;;1564402;74;1114;-71
2023/02/06 08:47:41;;;;;;;;;;;21.80;55.90;;;;;;1567395;74;729;-69
2023/02/06 08:49:43;;;;;;;;;;;21.80;55.80;;;;;;1564203;74;788;-69
2023/02/06 08:51:45;;;;;;;;;;;21.80;56.00;;;;;;1568942;74;649;-69
2023/02/06 08:53:47;;;;;;;;;;;21.70;56.00;;;;;;1568685;74;1928;-70
2023/02/06 08:55:48;;;;;;;;;;;21.70;56.10;;;;;;1566109;74;1154;-70
2023/02/06 08:57:50;;;;;;;;;;;21.70;56.10;;;;;;1560625;74;800;-72
2023/02/06 08:59:52;;;;;;;;;;;21.70;56.10;;;;;;1568910;74;765;-69
2023/02/06 09:01:54;;;;;;;;;;;21.70;56.30;;;;;;1568187;74;782;-68
2023/02/06 09:03:57;;;;;;;;;;;21.80;56.20;;;;;;1564305;74;779;-71
2023/02/06 09:06:02;;;;;;;;;;;21.70;56.20;;;;;;1564204;74;1155;-71
2023/02/06 09:08:04;;;;;;;;;;;21.70;56.60;;;;;;1563773;74;653;-70
2023/02/06 09:10:06;;;;;;;;;;;21.80;56.50;;;;;;1561749;74;761;-70
2023/02/06 09:12:09;;;;;;;;;;;22.00;56.10;;;;;;1562541;74;748;-70
2023/02/06 09:14:15;;;;;;;;;;;22.10;55.20;;;;;;1574717;74;1893;-68
2023/02/06 09:16:18;;;;;;;;;;;22.20;54.20;;;;;;1566454;74;1134;-68
2023/02/06 09:18:20;;;;;;;;;;;22.40;53.30;;;;;;1566425;74;583;-68
2023/02/06 09:20:25;;;;;;;;;;;22.40;52.80;;;;;;1563666;74;731;-67
2023/02/06 09:22:25;;;;;;;;;;;22.30;52.40;;;;;;1560934;74;1019;-69
2023/02/06 09:24:29;;;;;;;;;;;22.30;52.10;;;;;;1564116;74;581;-69
2023/02/06 09:26:32;;;;;;;;;;;22.30;51.70;;;;;;1555794;74;1183;-68
2023/02/06 09:28:34;;;;;;;;;;;22.20;51.20;;;;;;1568011;74;692;-69
2023/02/06 09:30:36;;;;;;;;;;;22.20;50.80;;;;;;1569705;74;693;-69
2023/02/06 09:32:37;;;;;;;;;;;22.10;50.40;;;;;;1566676;74;709;-70
2023/02/06 09:34:39;;;;;;;;;;;22.10;49.80;;;;;;1568680;74;1932;-69
2023/02/06 09:36:41;;;;;;;;;;;22.10;49.50;;;;;;1568988;74;1146;-69
2023/02/06 09:38:44;;;;;;;;;;;22.00;49.00;;;;;;1567442;74;760;-69
2023/02/06 09:40:46;;;;;;;;;;;22.00;48.30;;;;;;1566535;74;1506;-69
2023/02/06 09:42:47;;;;;;;;;;;22.00;48.30;;;;;;1557426;74;751;-68
2023/02/06 09:44:52;;;;;;;;;;;21.90;48.10;;;;;;1552931;74;718;-70
2023/02/06 09:46:55;;;;;;;;;;;21.80;47.60;;;;;;1568314;74;1125;-68
2023/02/06 09:48:58;;;;;;;;;;;21.80;47.30;;;;;;1562695;74;708;-70
2023/02/06 09:51:05;;;;;;;;;;;21.70;47.00;;;;;;1563563;74;626;-70
2023/02/06 09:53:17;;;;;;;;;;;21.70;46.80;;;;;;1569412;74;718;-69
2023/02/06 09:55:33;;;;;;;;;;;21.60;46.30;;;;;;1563405;74;1931;-69
2023/02/06 09:57:53;;;;;;;;;;;21.60;45.60;;;;;;1564001;74;724;-70
2023/02/06 09:59:56;;;;;;;;;;;21.50;45.20;;;;;;1566106;74;638;-70
2023/02/06 10:02:02;;;;;;;;;;;21.50;45.00;;;;;;1560087;74;746;-70
2023/02/06 10:04:22;;;;;;;;;;;21.30;44.30;;;;;;1567862;74;606;-70
2023/02/06 10:06:25;;;;;;;;;;;21.30;44.10;;;;;;1562183;74;1162;-71
2023/02/06 10:08:28;;;;;;;;;;;21.30;43.80;;;;;;1568901;74;705;-71
2023/02/06 10:10:38;;;;;;;;;;;21.30;43.50;;;;;;1568590;74;744;-69
2023/02/06 10:12:44;;;;;;;;;;;21.10;43.20;;;;;;1562235;74;721;-68
2023/02/06 10:14:48;;;;;;;;;;;21.10;43.00;;;;;;1567116;74;1914;-68
2023/02/06 10:16:52;;;;;;;;;;;21.00;42.50;;;;;;1566552;74;1118;-69
2023/02/06 10:18:55;;;;;;;;;;;21.00;42.10;;;;;;1559804;74;702;-69
2023/02/06 10:20:58;;;;;;;;;;;21.00;42.10;;;;;;1565107;74;729;-68
2023/02/06 10:23:11;;;;;;;;;;;21.00;41.80;;;;;;1557907;74;1020;-69
2023/02/06 10:25:15;;;;;;;;;;;21.00;41.70;;;;;;1566284;74;731;-69
2023/02/06 10:27:17;;;;;;;;;;;20.90;41.50;;;;;;1556798;74;1088;-70
2023/02/06 10:29:21;;;;;;;;;;;20.90;41.40;;;;;;1568535;74;727;-69
2023/02/06 10:31:28;;;;;;;;;;;20.80;40.80;;;;;;1558235;74;1511;-68
2023/02/06 10:33:31;;;;;;;;;;;20.80;40.70;;;;;;1566394;74;657;-68
2023/02/06 10:35:53;;;;;;;;;;;20.70;40.60;;;;;;1568325;74;1912;-68
2023/02/06 10:38:03;;;;;;;;;;;20.70;40.50;;;;;;1566070;74;1633;-69
2023/02/06 10:40:16;;;;;;;;;;;20.60;40.30;;;;;;1559773;74;1790;-70
2023/02/06 10:42:22;;;;;;;;;;;20.60;40.40;;;;;;1565338;74;1826;-70
2023/02/06 10:44:31;;;;;;;;;;;20.50;40.30;;;;;;1569574;74;771;-70
2023/02/06 10:46:44;;;;;;;;;;;20.50;40.20;;;;;;1568725;74;1138;-71
2023/02/06 10:48:48;;;;;;;;;;;20.40;39.90;;;;;;1567014;74;975;-70
2023/02/06 10:50:57;;;;;;;;;;;20.40;39.70;;;;;;1566014;74;1049;-70
2023/02/06 10:53:00;;;;;;;;;;;20.40;39.50;;;;;;1561783;74;934;-69
2023/02/06 10:55:20;;;;;;;;;;;20.40;39.60;;;;;;1568870;74;1920;-70
2023/02/06 10:57:23;;;;;;;;;;;20.30;39.40;;;;;;1562736;74;1037;-71
2023/02/06 10:59:30;;;;;;;;;;;20.30;39.40;;;;;;1567843;74;764;-70
2023/02/06 11:01:33;;;;;;;;;;;20.20;39.20;;;;;;1564881;74;714;-70
2023/02/06 11:03:35;;;;;;;;;;;20.20;38.90;;;;;;1562170;74;712;-69
2023/02/06 11:05:37;;;;;;;;;;;20.10;38.80;;;;;;1568906;74;1142;-70
2023/02/06 11:07:40;;;;;;;;;;;20.10;38.90;;;;;;1568362;74;745;-68
2023/02/06 11:09:43;;;;;;;;;;;20.10;38.60;;;;;;1568993;74;687;-69
2023/02/06 11:11:50;;;;;;;;;;;20.10;38.60;;;;;;1563255;74;725;-70
2023/02/06 11:13:50;;;;;;;;;;;20.00;38.60;;;;;;1558379;74;1093;-70
2023/02/06 11:16:09;;;;;;;;;;;20.00;38.50;;;;;;1569936;74;1920;-70
2023/02/06 11:18:12;;;;;;;;;;;20.00;38.30;;;;;;1563117;74;799;-72
2023/02/06 11:20:21;;;;;;;;;;;20.00;38.30;;;;;;1569318;74;749;-72
2023/02/06 11:22:27;;;;;;;;;;;20.00;38.10;;;;;;1562512;74;781;-70
2023/02/06 11:24:29;;;;;;;;;;;19.90;38.10;;;;;;1537613;76;733;-69
2023/02/06 11:26:31;;;;;;;;;;;20.00;38.10;;;;;;1566820;74;1133;-68
2023/02/06 11:28:34;;;;;;;;;;;19.90;37.80;;;;;;1567061;74;659;-66
2023/02/06 11:30:36;;;;;;;;;;;19.90;37.90;;;;;;1568918;74;775;-69
2023/02/06 11:32:42;;;;;;;;;;;19.90;37.70;;;;;;1568780;74;1459;-67
2023/02/06 11:34:54;;;;;;;;;;;19.80;37.60;;;;;;1565427;74;1902;-68
2023/02/06 11:36:57;;;;;;;;;;;19.80;37.40;;;;;;1552853;74;1259;-68
2023/02/06 11:39:01;;;;;;;;;;;19.80;37.40;;;;;;1573386;74;997;-67
2023/02/06 11:41:04;;;;;;;;;;;19.70;37.40;;;;;;1568217;74;1013;-68
2023/02/06 11:43:10;;;;;;;;;;;19.80;37.40;;;;;;1568353;74;727;-70
2023/02/06 11:45:29;;;;;;;;;;;19.70;37.30;;;;;;1566821;74;826;-69
2023/02/06 11:47:32;;;;;;;;;;;19.60;37.10;;;;;;1565470;74;901;-69
2023/02/06 11:49:34;;;;;;;;;;;19.70;37.20;;;;;;1562427;74;662;-68
2023/02/06 11:51:50;;;;;;;;;;;19.60;37.10;;;;;;1568539;74;775;-68
2023/02/06 11:53:56;;;;;;;;;;;19.60;37.10;;;;;;1567413;74;759;-67
2023/02/06 11:56:02;;;;;;;;;;;19.60;37.10;;;;;;1561122;74;1918;-68
2023/02/06 11:58:06;;;;;;;;;;;19.50;37.00;;;;;;1569214;74;768;-68
2023/02/06 12:00:21;;;;;;;;;;;19.60;37.10;;;;;;1560643;74;771;-67
2023/02/06 12:02:33;;;;;;;;;;;19.50;37.10;;;;;;1564305;74;768;-68
2023/02/06 12:04:36;;;;;;;;;;;19.40;36.80;;;;;;1561243;74;720;-67
2023/02/06 12:06:38;;;;;;;;;;;19.40;36.80;;;;;;1563684;74;1135;-66
2023/02/06 12:08:42;;;;;;;;;;;19.50;36.90;;;;;;1563937;74;769;-67
2023/02/06 12:11:00;;;;;;;;;;;19.40;36.80;;;;;;1555838;74;996;-66
2023/02/06 12:13:10;;;;;;;;;;;19.40;36.70;;;;;;1562578;74;770;-67
2023/02/06 12:15:16;;;;;;;;;;;19.40;36.70;;;;;;1567977;74;1930;-67
2023/02/06 12:17:26;;;;;;;;;;;19.30;36.70;;;;;;1563684;74;1126;-67
2023/02/06 12:19:30;;;;;;;;;;;19.30;36.70;;;;;;1567833;74;713;-66